createdAt,value
2019-04-05T09:06:15.188Z,23.1601
2019-04-05T09:06:23.378Z,23.1895
2019-04-05T09:06:36.329Z,23.2723
2019-04-05T09:06:44.304Z,23.2589
2019-04-05T09:06:52.305Z,23.2162
2019-04-05T09:10:28.811Z,23.4993
2019-04-05T09:10:36.377Z,23.3284
2019-04-05T09:10:44.333Z,23.3444
2019-04-05T09:10:54.652Z,23.3845
2019-04-05T09:11:02.337Z,23.4138
2019-04-05T09:11:10.343Z,23.3845
2019-04-05T09:11:18.296Z,23.3150
2019-04-05T09:11:26.319Z,23.3150
2019-04-05T09:11:34.310Z,23.3444
2019-04-05T09:11:42.353Z,23.3711
2019-04-05T09:11:50.300Z,23.3711
2019-04-05T09:11:58.311Z,23.3845
2019-04-05T09:12:06.332Z,23.3845
2019-04-05T09:12:14.329Z,23.3284
2019-04-05T09:12:22.312Z,23.2723
2019-04-05T09:12:30.321Z,23.2456
2019-04-05T09:12:38.326Z,23.2589
2019-04-05T09:12:46.374Z,23.2296
2019-04-05T09:12:54.298Z,23.3711
2019-04-05T09:13:02.339Z,23.3711
2019-04-05T09:13:10.309Z,23.4138
2019-04-05T09:13:18.335Z,23.4138
2019-04-05T09:13:26.308Z,23.4005
2019-04-05T09:13:34.340Z,23.3577
2019-04-05T09:13:42.312Z,23.4699
2019-04-05T09:13:51.424Z,23.4993
2019-04-05T09:13:59.311Z,23.5554
2019-04-05T09:14:07.318Z,23.5714
2019-04-05T09:14:15.318Z,23.6141
2019-04-05T09:14:23.290Z,23.6274
2019-04-05T09:14:31.320Z,23.6408
2019-04-05T09:14:39.293Z,23.7957
2019-04-05T09:14:47.291Z,23.9933
2019-04-05T09:14:55.294Z,24.0948
2019-04-05T09:15:03.368Z,24.0654
2019-04-05T09:15:11.307Z,24.0227
2019-04-05T09:15:19.303Z,23.9799
2019-04-05T09:15:27.325Z,24.0654
2019-04-05T09:15:35.333Z,24.1936
2019-04-05T09:15:43.316Z,24.3778
2019-04-05T09:15:51.293Z,24.5460
2019-04-05T09:15:59.302Z,24.7597
2019-04-05T09:16:07.328Z,24.9146
2019-04-05T09:16:15.325Z,24.8852
2019-04-05T09:16:23.354Z,24.9706
2019-04-05T09:16:31.337Z,24.9706
2019-04-05T09:16:39.312Z,24.7864
2019-04-05T09:16:47.322Z,24.4739
2019-04-05T09:16:55.596Z,24.3191
2019-04-05T09:17:03.602Z,24.1642
2019-04-05T09:17:11.603Z,24.0360
2019-04-05T09:17:19.611Z,23.9799
2019-04-05T09:17:27.603Z,23.8678
2019-04-05T09:17:35.614Z,23.8384
2019-04-05T09:17:43.607Z,23.8678
2019-04-05T09:17:51.602Z,23.8811
2019-04-05T09:17:59.610Z,23.9799
2019-04-05T09:18:07.610Z,24.0654
2019-04-05T09:18:15.614Z,24.3484
2019-04-05T09:18:23.585Z,24.3778
2019-04-05T09:18:31.587Z,24.2363
2019-04-05T09:18:39.604Z,24.2496
2019-04-05T12:57:16.471Z,24.1375
2019-04-05T12:57:25.717Z,24.1508
2019-04-05T12:57:35.275Z,24.1241
2019-04-05T12:57:43.259Z,24.0654
2019-04-05T12:57:51.253Z,23.7823
2019-04-05T12:57:59.270Z,23.7262
2019-04-05T12:58:09.813Z,23.7262
2019-04-05T12:58:18.263Z,23.7129
2019-04-05T12:58:26.751Z,23.6969
2019-04-05T12:58:34.256Z,23.6702
2019-04-05T12:58:42.250Z,23.6969
2019-04-05T12:58:50.247Z,23.6568
2019-04-05T12:58:58.246Z,23.6568
2019-04-05T12:59:06.245Z,23.6568
2019-04-05T12:59:14.248Z,23.6408
2019-04-05T12:59:25.134Z,23.6141
2019-04-05T12:59:33.264Z,23.5847
2019-04-05T12:59:41.885Z,23.6007
2019-04-05T12:59:51.289Z,23.5847
2019-04-05T12:59:59.307Z,23.5714
